Time;durP1;ratioP1;P1;durP2;ratioP2;P2;SDS_P1;SDS_P2;PMS_P1;PMS_P2;Temp;Humidity;BMP_temperature;BMP_pressure;BME280_temperature;BME280_humidity;BME280_pressure;Samples;Min_cycle;Max_cycle;Signal;HPM_P1;HPM_P2
2022/04/05 00:00:37;;;;;;;5.30;4.30;;;5.90;58.90;;;5.79;81.54;99239.66;4789750;29;20248;-74
2022/04/05 00:03:06;;;;;;;5.38;4.22;;;5.90;1.00;;;5.82;80.16;99241.91;4790018;29;20212;-75
2022/04/05 00:05:36;;;;;;;7.35;3.95;;;5.90;99.90;;;5.78;80.40;99248.75;4788970;29;20214;-74
2022/04/05 00:08:05;;;;;;;9.90;3.85;;;5.80;99.90;;;5.72;80.25;99252.25;4790009;29;20182;-73
2022/04/05 00:10:36;;;;;;;3.85;3.25;;;5.80;99.90;;;5.65;80.73;99258.50;4789561;29;20206;-73
2022/04/05 00:13:06;;;;;;;6.05;3.30;;;5.70;99.90;;;5.61;80.97;99265.31;4790258;29;20189;-76
2022/04/05 00:15:37;;;;;;;8.52;3.33;;;5.70;83.80;;;5.57;80.65;99258.69;4788893;29;20246;-73
2022/04/05 00:18:06;;;;;;;3.30;2.63;;;5.70;12.20;;;5.59;80.99;99275.44;4789891;29;20190;-73
2022/04/05 00:20:35;;;;;;;8.57;2.75;;;5.70;99.90;;;5.59;79.79;99250.44;4788654;29;20252;-73
2022/04/05 00:23:04;;;;;;;6.82;3.05;;;5.60;1.00;;;5.56;79.84;99257.06;4789443;29;20257;-74
2022/04/05 00:25:33;;;;;;;6.13;3.92;;;5.70;1.00;;;5.56;79.68;99262.44;4789100;29;20206;-74
2022/04/05 00:28:03;;;;;;;5.90;2.58;;;5.60;1.00;;;5.54;79.60;99264.50;4788326;30;20259;-74
2022/04/05 00:30:32;;;;;;;10.57;2.53;;;5.60;1.00;;;5.55;80.12;99259.97;4789623;29;20210;-73
2022/04/05 00:33:03;;;;;;;6.90;2.58;;;5.60;1.00;;;5.58;79.55;99265.72;4787984;30;20256;-73
2022/04/05 00:35:32;;;;;;;7.28;3.03;;;5.60;99.90;;;5.58;79.40;99262.22;4789223;29;20665;-72
2022/04/05 00:38:01;;;;;;;7.43;2.45;;;5.70;1.00;;;5.60;79.58;99269.03;4787801;30;20198;-76
2022/04/05 00:40:30;;;;;;;6.20;2.30;;;5.70;99.90;;;5.62;79.76;99261.56;4788867;29;20313;-72
2022/04/05 00:43:03;;;;;;;3.42;2.13;;;5.70;1.00;;;5.55;79.35;99271.50;4787857;29;20183;-74
2022/04/05 00:45:33;;;;;;;6.68;2.30;;;5.70;99.90;;;5.60;78.98;99274.41;4789273;29;20222;-74
2022/04/05 00:48:04;;;;;;;5.00;2.20;;;5.70;99.90;;;5.59;78.37;99262.00;4789730;30;20213;-75
2022/04/05 00:50:38;;;;;;;5.93;1.58;;;5.70;1.00;;;5.55;79.46;99268.84;4788778;29;20305;-75
2022/04/05 00:53:08;;;;;;;10.38;2.47;;;5.60;1.00;;;5.61;79.31;99265.31;4790474;29;20175;-73
2022/04/05 00:55:39;;;;;;;11.70;2.55;;;5.70;1.00;;;5.65;79.09;99269.22;4789879;29;20190;-74
2022/04/05 00:58:14;;;;;;;4.97;1.98;;;5.70;1.00;;;5.60;79.05;99274.41;4788280;29;20755;-73
2022/04/05 01:00:43;;;;;;;3.70;1.50;;;5.70;1.00;;;5.63;79.35;99279.34;4788008;29;20256;-74
2022/04/05 01:03:15;;;;;;;6.88;2.25;;;5.70;1.00;;;5.69;79.37;99277.69;4788587;30;20236;-74
2022/04/05 01:05:47;;;;;;;7.30;1.55;;;5.70;1.00;;;5.69;80.15;99277.69;4788009;29;20217;-75
2022/04/05 01:08:20;;;;;;;14.30;2.38;;;5.70;1.00;;;5.66;79.97;99284.28;4788195;29;20212;-74
2022/04/05 01:10:51;;;;;;;6.85;3.00;;;5.70;28.30;;;5.62;80.43;99277.69;4788346;29;20214;-74
2022/04/05 01:13:20;;;;;;;6.07;3.13;;;5.70;99.90;;;5.59;80.34;99277.28;4788281;29;20191;-74
2022/04/05 01:15:50;;;;;;;9.05;3.65;;;5.70;99.90;;;5.65;79.67;99282.66;4786974;29;20194;-75
2022/04/05 01:18:21;;;;;;;6.10;2.60;;;5.70;1.00;;;5.63;79.68;99282.03;4788116;29;20210;-75
2022/04/05 01:20:51;;;;;;;4.40;2.72;;;5.70;1.00;;;5.63;79.70;99284.69;4786422;29;20268;-75
2022/04/05 01:23:23;;;;;;;6.35;1.90;;;5.70;1.00;;;5.60;79.76;99276.25;4788271;29;20243;-74
2022/04/05 01:25:56;;;;;;;8.93;2.05;;;5.60;1.00;;;5.65;79.15;99279.97;4787875;29;20746;-75
2022/04/05 01:28:26;;;;;;;6.88;1.95;;;5.70;1.00;;;5.71;78.49;99282.84;4788574;29;20627;-74
2022/04/05 01:30:55;;;;;;;10.48;3.72;;;5.70;99.90;;;5.62;78.10;99288.41;4788882;29;20242;-74
2022/04/05 01:33:24;;;;;;;7.07;2.70;;;5.70;99.90;;;5.68;78.13;99287.59;4788533;29;20265;-75
2022/04/05 01:35:53;;;;;;;13.48;2.85;;;5.70;99.90;;;5.67;78.10;99288.59;4788219;29;20352;-75
2022/04/05 01:38:22;;;;;;;6.05;2.70;;;5.70;99.90;;;5.68;78.25;99289.44;4787720;29;20369;-73
2022/04/05 01:40:55;;;;;;;6.32;2.60;;;5.80;99.90;;;5.67;77.43;99280.56;4788044;29;20222;-74
2022/04/05 01:43:24;;;;;;;3.10;1.83;;;5.80;99.90;;;5.67;77.81;99285.94;4787719;29;20228;-73
2022/04/05 01:45:53;;;;;;;7.97;2.63;;;5.70;99.90;;;5.69;77.48;99289.25;4787187;29;20300;-74
2022/04/05 01:48:22;;;;;;;8.25;2.08;;;5.80;99.90;;;5.68;76.17;99287.59;4787019;29;20635;-73
2022/04/05 01:50:51;;;;;;;5.38;2.08;;;5.80;1.00;;;5.64;76.04;99285.53;4788014;29;20690;-73
2022/04/05 01:53:23;;;;;;;11.52;2.67;;;5.70;1.00;;;5.62;75.52;99275.00;4787998;29;20777;-74
2022/04/05 01:55:54;;;;;;;4.97;2.05;;;5.70;1.00;;;5.64;75.88;99290.91;4788045;29;20190;-73
2022/04/05 01:58:24;;;;;;;8.70;2.67;;;5.70;1.00;;;5.59;76.30;99278.09;4786427;29;20301;-73
2022/04/05 02:00:54;;;;;;;7.25;2.15;;;5.70;1.00;;;5.57;76.13;99277.47;4786978;29;20228;-73
2022/04/05 02:03:23;;;;;;;15.15;2.97;;;5.60;1.00;;;5.62;75.68;99283.03;4787726;29;20677;-74
2022/04/05 02:05:53;;;;;;;9.02;2.60;;;5.70;1.00;;;5.59;76.07;99277.28;4788013;29;20271;-74
2022/04/05 02:08:24;;;;;;;11.23;2.50;;;5.70;1.00;;;5.60;75.76;99284.31;4788436;29;20587;-74
2022/04/05 02:10:55;;;;;;;9.82;2.63;;;5.70;1.00;;;5.59;76.23;99283.47;4789264;29;20217;-74
2022/04/05 02:13:26;;;;;;;5.85;2.00;;;5.70;1.00;;;5.60;76.41;99284.31;4787464;30;20571;-74
2022/04/05 02:16:02;;;;;;;7.22;2.28;;;5.60;1.00;;;5.60;75.15;99286.97;4786962;30;20277;-73
2022/04/05 02:18:33;;;;;;;7.40;2.67;;;5.70;1.00;;;5.58;75.64;99281.81;4786846;29;20197;-73
2022/04/05 02:21:05;;;;;;;12.77;2.88;;;5.70;1.00;;;5.58;76.19;99284.50;4787982;29;20221;-74
2022/04/05 02:23:35;;;;;;;6.55;2.38;;;5.70;1.00;;;5.55;75.99;99286.78;4786396;29;20221;-73
2022/04/05 02:26:23;;;;;;;8.25;2.20;;;5.60;1.00;;;5.50;76.63;99295.47;4786320;29;20222;-73
2022/04/05 02:29:00;;;;;;;7.00;2.72;;;5.60;1.00;;;5.56;76.24;99291.13;4786758;30;20942;-73
2022/04/05 02:31:35;;;;;;;6.28;2.20;;;5.60;1.00;;;5.55;76.58;99289.47;4786723;29;20705;-73
2022/04/05 02:34:13;;;;;;;6.20;2.13;;;5.60;1.00;;;5.48;76.92;99294.84;4787166;29;20288;-75
2022/04/05 02:36:55;;;;;;;9.10;2.83;;;5.60;1.00;;;5.45;77.17;99289.91;4786715;30;20678;-75
2022/04/05 02:39:38;;;;;;;12.48;2.13;;;5.60;1.00;;;5.43;77.52;99300.00;4786085;29;20221;-75
2022/04/05 02:42:10;;;;;;;9.15;2.92;;;5.60;1.00;;;5.42;77.38;99302.91;4787765;29;20214;-74
2022/04/05 02:44:46;;;;;;;7.75;2.70;;;5.50;1.00;;;5.36;77.66;99304.56;4803097;30;20204;-75
2022/04/05 02:47:15;;;;;;;8.55;3.05;;;5.50;1.00;;;5.35;77.86;99300.22;4805086;29;20202;-74
2022/04/05 02:50:00;;;;;;;15.27;2.83;;;5.50;1.00;;;5.38;78.16;99307.84;4801231;29;20225;-74
2022/04/05 02:52:32;;;;;;;6.80;2.85;;;5.50;3.50;;;5.35;78.30;99308.25;4799114;29;20198;-74
2022/04/05 02:55:06;;;;;;;9.35;2.80;;;5.50;2.00;;;5.37;78.43;99300.03;4797620;29;20214;-73
2022/04/05 02:57:40;;;;;;;7.57;2.88;;;5.50;10.50;;;5.33;78.67;99304.94;4806986;29;20229;-74
2022/04/05 03:00:17;;;;;;;4.07;2.05;;;5.40;12.20;;;5.35;78.51;99319.00;4790166;29;20415;-74
2022/04/05 03:02:51;;;;;;;6.18;3.08;;;5.40;17.40;;;5.36;78.33;99317.97;4805996;29;20623;-73
2022/04/05 03:05:26;;;;;;;4.63;1.95;;;5.40;15.50;;;5.38;78.62;99321.25;4807584;29;20158;-72
2022/04/05 03:08:09;;;;;;;5.10;2.00;;;5.40;17.70;;;5.38;78.14;99318.56;4805926;29;20220;-74
2022/04/05 03:10:56;;;;;;;10.63;2.08;;;5.50;7.70;;;5.35;77.97;99319.00;4802484;29;20225;-74
2022/04/05 03:13:39;;;;;;;10.45;2.70;;;5.40;4.30;;;5.37;77.93;99333.03;4802591;30;20194;-74
2022/04/05 03:16:10;;;;;;;12.55;3.40;;;5.40;9.60;;;5.38;77.90;99339.19;4801927;29;20202;-75
2022/04/05 03:18:39;;;;;;;8.40;3.08;;;5.50;3.20;;;5.41;78.04;99334.25;4804378;29;20335;-74
2022/04/05 03:21:08;;;;;;;8.43;2.10;;;5.50;5.30;;;5.42;78.29;99346.63;4799630;29;20210;-73
2022/04/05 03:23:37;;;;;;;9.52;2.20;;;5.50;5.60;;;5.46;77.19;99341.69;4784822;29;20289;-73
2022/04/05 03:26:07;;;;;;;13.82;2.63;;;5.50;2.40;;;5.38;77.73;99339.19;4786355;29;20210;-73
2022/04/05 03:28:38;;;;;;;7.53;2.92;;;5.50;1.00;;;5.35;78.05;99340.44;4785069;30;20203;-73
2022/04/05 03:31:08;;;;;;;5.80;2.67;;;5.50;1.00;;;5.36;77.80;99347.47;4784392;29;20482;-74
2022/04/05 03:33:37;;;;;;;4.50;2.55;;;5.50;1.00;;;5.35;77.26;99345.81;4785999;29;20244;-74
2022/04/05 03:36:09;;;;;;;8.20;2.13;;;5.40;1.00;;;5.38;77.21;99329.28;4784800;29;20195;-74
2022/04/05 03:38:38;;;;;;;6.53;2.03;;;5.50;1.00;;;5.39;76.95;99341.69;4785901;29;20389;-73
2022/04/05 03:41:09;;;;;;;6.68;2.17;;;5.40;1.00;;;5.34;77.28;99333.44;4784797;29;20582;-74
2022/04/05 03:43:43;;;;;;;8.68;3.55;;;5.50;1.00;;;5.35;76.78;99335.09;4784815;29;20209;-74
2022/04/05 03:46:17;;;;;;;4.80;2.22;;;5.50;1.00;;;5.35;77.08;99337.75;4784036;29;20214;-73
2022/04/05 03:48:48;;;;;;;10.13;3.10;;;5.40;1.00;;;5.27;77.25;99339.84;4783731;29;20226;-73
2022/04/05 03:51:19;;;;;;;10.48;2.88;;;5.40;1.00;;;5.32;76.80;99338.19;4783984;29;20226;-74
2022/04/05 03:53:56;;;;;;;4.35;2.80;;;5.40;1.00;;;5.35;76.35;99345.81;4785434;29;20717;-74
2022/04/05 03:56:27;;;;;;;13.02;3.20;;;5.40;1.00;;;5.35;75.85;99356.53;4785584;29;20221;-74
2022/04/05 03:59:02;;;;;;;8.82;4.20;;;5.40;1.00;;;5.30;76.55;99359.00;4786424;30;20239;-75
2022/04/05 04:01:36;;;;;;;8.57;2.72;;;5.40;1.00;;;5.28;76.34;99361.06;4790552;29;20264;-74
2022/04/05 04:04:06;;;;;;;5.60;2.60;;;5.40;1.00;;;5.27;76.91;99364.81;4790144;29;20230;-74
2022/04/05 04:06:35;;;;;;;11.32;3.30;;;5.40;1.00;;;5.32;76.79;99367.69;4787979;30;20242;-74
2022/04/05 04:09:04;;;;;;;12.63;3.75;;;5.40;1.00;;;5.36;76.96;99379.66;4787393;29;20209;-73
2022/04/05 04:11:34;;;;;;;11.98;3.45;;;5.40;1.00;;;5.37;76.59;99381.31;4786982;29;20229;-74
2022/04/05 04:14:05;;;;;;;14.73;3.72;;;5.40;1.00;;;5.32;76.92;99373.06;4786247;29;20179;-75
2022/04/05 04:16:34;;;;;;;10.05;3.10;;;5.40;1.00;;;5.36;77.22;99387.72;4786984;29;20205;-74
2022/04/05 04:19:05;;;;;;;6.13;3.30;;;5.50;1.00;;;5.36;76.45;99378.81;4789659;30;20178;-75
2022/04/05 04:21:37;;;;;;;8.02;2.40;;;5.50;1.00;;;5.38;76.66;99388.31;4787936;29;20187;-75
2022/04/05 04:24:08;;;;;;;8.80;3.75;;;5.50;1.00;;;5.31;76.31;99386.66;4788472;29;20466;-74
2022/04/05 04:26:38;;;;;;;9.38;3.53;;;5.40;1.00;;;5.37;77.03;99385.84;4787538;29;20202;-75
2022/04/05 04:29:09;;;;;;;9.50;2.40;;;5.40;1.00;;;5.30;76.11;99385.84;4787145;29;20233;-74
2022/04/05 04:31:38;;;;;;;13.48;3.38;;;5.40;1.00;;;5.27;76.67;99391.63;4787617;29;20278;-74
2022/04/05 04:34:17;;;;;;;10.95;2.92;;;5.40;1.00;;;5.19;76.23;99391.78;4787229;29;20758;-74
2022/04/05 04:36:47;;;;;;;6.07;3.50;;;5.30;1.00;;;5.22;76.05;99386.03;4788971;29;20720;-74
2022/04/05 04:39:18;;;;;;;10.80;3.33;;;5.30;1.00;;;5.25;75.62;99396.34;4788344;29;20407;-74
2022/04/05 04:41:47;;;;;;;11.80;3.03;;;5.30;1.00;;;5.23;75.75;99390.34;4788791;29;20189;-73
2022/04/05 04:44:17;;;;;;;17.52;3.20;;;5.30;1.00;;;5.24;75.81;99392.84;4789502;29;20183;-73
2022/04/05 04:46:46;;;;;;;17.40;3.80;;;5.30;1.00;;;5.25;75.95;99393.66;4787596;30;20666;-73
2022/04/05 04:49:16;;;;;;;8.43;2.42;;;5.30;1.00;;;5.28;75.75;99406.66;4787620;29;20214;-74
2022/04/05 04:51:54;;;;;;;9.30;3.30;;;5.30;1.00;;;5.33;75.24;99400.69;4788598;29;20189;-75
2022/04/05 04:54:23;;;;;;;12.98;2.20;;;5.40;1.00;;;5.35;75.10;99415.56;4789177;29;20682;-77
2022/04/05 04:56:52;;;;;;;7.68;2.85;;;5.40;1.00;;;5.32;75.27;99407.09;4787683;29;20194;-74
2022/04/05 04:59:29;;;;;;;11.25;3.08;;;5.40;1.00;;;5.29;74.81;99404.81;4787488;29;20206;-73
2022/04/05 05:02:08;;;;;;;7.68;3.00;;;5.40;1.00;;;5.35;74.63;99412.03;4789292;29;20202;-73
2022/04/05 05:04:37;;;;;;;9.65;3.28;;;5.40;1.00;;;5.37;74.15;99408.13;4789278;29;20187;-73
2022/04/05 05:07:08;;;;;;;15.32;3.38;;;5.40;1.00;;;5.42;74.09;99418.25;4789302;29;20287;-75
2022/04/05 05:09:44;;;;;;;6.95;3.72;;;5.50;1.00;;;5.40;74.11;99420.31;4787879;29;20226;-73
2022/04/05 05:12:22;;;;;;;7.85;3.20;;;5.50;1.00;;;5.38;74.28;99422.34;4788828;29;20251;-74
2022/04/05 05:14:52;;;;;;;10.70;3.33;;;5.50;1.00;;;5.42;74.33;99420.94;4788661;29;20638;-75
2022/04/05 05:17:21;;;;;;;9.80;3.28;;;5.50;1.00;;;5.40;74.18;99431.03;4788758;29;20174;-74
2022/04/05 05:19:58;;;;;;;7.18;3.15;;;5.50;1.00;;;5.43;73.88;99434.13;4788783;29;20218;-73
2022/04/05 05:22:34;;;;;;;7.07;3.17;;;5.50;1.00;;;5.40;74.11;99431.88;4787161;29;20206;-74
2022/04/05 05:25:14;;;;;;;12.18;5.28;;;5.50;1.00;;;5.49;74.30;99444.03;4789372;29;20182;-74
2022/04/05 05:27:47;;;;;;;11.35;3.75;;;5.50;1.00;;;5.54;73.70;99446.94;4787147;29;20709;-73
2022/04/05 05:30:18;;;;;;;13.23;4.47;;;5.60;1.00;;;5.50;73.76;99456.44;4788804;29;20245;-74
2022/04/05 05:32:51;;;;;;;10.00;4.03;;;5.60;1.00;;;5.52;73.52;99446.31;4788970;29;20191;-74
2022/04/05 05:35:22;;;;;;;11.45;5.00;;;5.60;1.00;;;5.50;73.81;99456.44;4789143;29;20210;-74
2022/04/05 05:37:52;;;;;;;13.60;4.95;;;5.60;1.00;;;5.53;73.77;99450.66;4788954;29;20178;-74
2022/04/05 05:40:24;;;;;;;17.77;5.07;;;5.60;1.00;;;5.57;73.75;99465.31;4788211;29;20237;-74
2022/04/05 05:42:57;;;;;;;16.58;7.03;;;5.60;1.00;;;5.52;73.69;99465.09;4789540;29;20194;-74
2022/04/05 05:45:30;;;;;;;11.80;3.30;;;5.60;1.00;;;5.59;73.26;99474.00;4788608;29;20198;-75
2022/04/05 05:47:59;;;;;;;6.95;3.60;;;5.60;1.00;;;5.56;73.20;99482.47;4789173;29;20217;-74
2022/04/05 05:50:36;;;;;;;10.50;3.45;;;5.60;1.00;;;5.66;73.53;99488.22;4789657;29;20709;-74
2022/04/05 05:53:13;;;;;;;6.55;2.72;;;5.60;1.00;;;5.67;72.85;99487.19;4790019;29;20201;-73
2022/04/05 05:55:52;;;;;;;14.90;2.80;;;5.70;1.00;;;5.69;72.94;99498.56;4789225;29;20284;-74
2022/04/05 05:58:22;;;;;;;9.07;4.35;;;5.70;1.00;;;5.72;72.80;99496.50;4788722;30;20174;-74
2022/04/05 06:00:53;;;;;;;3.90;2.35;;;5.70;1.00;;;5.76;72.88;99503.94;4789347;29;20225;-73
2022/04/05 06:03:22;;;;;;;11.80;3.78;;;5.80;1.00;;;5.80;72.02;99494.47;4790733;29;20187;-73
2022/04/05 06:05:52;;;;;;;9.13;3.58;;;5.80;1.00;;;5.81;71.88;99516.75;4794646;29;20203;-73
2022/04/05 06:08:21;;;;;;;9.25;3.05;;;5.80;1.00;;;5.66;71.05;99509.69;4792198;29;20290;-73
2022/04/05 06:10:50;;;;;;;12.25;3.75;;;5.80;1.00;;;5.86;71.08;99511.56;4790732;29;20228;-75
2022/04/05 06:13:21;;;;;;;6.82;2.20;;;5.80;1.00;;;5.67;70.98;99511.34;4789827;29;20197;-74
2022/04/05 06:15:52;;;;;;;9.13;3.05;;;5.80;1.00;;;5.82;70.88;99521.06;4789569;29;20222;-75
2022/04/05 06:18:21;;;;;;;6.82;2.45;;;5.80;1.00;;;5.82;71.07;99529.13;4792419;29;20178;-75
2022/04/05 06:20:52;;;;;;;5.90;2.10;;;5.80;1.00;;;5.94;70.21;99533.75;4807562;29;20235;-75
2022/04/05 06:23:21;;;;;;;11.23;2.63;;;5.90;1.00;;;6.10;69.66;99535.16;4804175;30;20224;-75
2022/04/05 06:25:50;;;;;;;6.80;3.03;;;6.00;1.00;;;6.17;69.62;99537.88;4790618;29;20186;-75
2022/04/05 06:28:19;;;;;;;7.40;2.33;;;6.10;1.00;;;6.24;68.70;99544.91;4790843;29;20217;-74
2022/04/05 06:30:48;;;;;;;7.88;2.42;;;6.20;1.00;;;6.51;68.57;99546.53;4793651;29;20226;-75
2022/04/05 06:33:22;;;;;;;10.05;3.45;;;6.40;1.00;;;6.53;68.45;99559.78;4794822;29;20233;-75
2022/04/05 06:35:54;;;;;;;9.38;3.03;;;6.50;1.00;;;6.44;69.28;99567.19;4789060;29;20210;-75
2022/04/05 06:38:24;;;;;;;12.85;3.30;;;6.40;1.00;;;6.56;68.94;99564.72;4786361;29;20787;-75
2022/04/05 06:40:57;;;;;;;7.22;2.85;;;6.50;1.00;;;6.57;68.55;99570.94;4787831;29;20224;-75
2022/04/05 06:43:26;;;;;;;5.22;2.72;;;6.50;1.00;;;6.31;69.08;99567.22;4790130;29;20190;-73
2022/04/05 06:45:55;;;;;;;11.32;2.50;;;6.50;1.00;;;6.40;69.01;99571.34;4804107;29;20205;-75
2022/04/05 06:48:26;;;;;;;10.27;2.50;;;6.40;1.00;;;6.25;69.06;99584.16;4791641;29;20206;-74
2022/04/05 06:50:55;;;;;;;9.35;2.42;;;6.30;1.00;;;6.50;69.40;99587.88;4882477;24;20240;-79
2022/04/05 06:53:24;;;;;;;7.57;2.80;;;6.50;1.00;;;6.59;69.04;99595.72;4830550;29;20217;-81
2022/04/05 06:55:54;;;;;;;8.13;2.95;;;6.50;1.00;;;6.65;68.04;99600.28;4831289;29;20204;-81
2022/04/05 06:58:24;;;;;;;6.93;2.85;;;6.60;1.00;;;6.29;68.25;99598.03;4831280;29;20200;-82
2022/04/05 07:00:54;;;;;;;9.45;3.22;;;6.50;1.00;;;6.21;68.37;99604.41;4831570;29;20181;-80
2022/04/05 07:03:23;;;;;;;8.65;3.08;;;6.40;1.00;;;6.19;66.87;99609.16;4819436;29;20214;-81
2022/04/05 07:05:55;;;;;;;8.18;2.53;;;6.30;1.00;;;6.38;66.71;99608.34;4810973;29;20626;-81
2022/04/05 07:08:24;;;;;;;8.30;2.35;;;6.40;1.00;;;6.37;66.06;99609.38;4816893;29;20252;-81
2022/04/05 07:10:53;;;;;;;5.60;2.15;;;6.40;1.00;;;6.46;66.00;99613.53;4832864;29;20228;-81
2022/04/05 07:13:22;;;;;;;10.32;3.63;;;6.50;1.00;;;7.01;64.77;99611.41;4832145;29;20212;-83
2022/04/05 07:15:51;;;;;;;3.90;2.03;;;6.80;1.00;;;7.30;64.22;99619.00;4813595;29;20200;-81
2022/04/05 07:18:21;;;;;;;12.13;2.85;;;7.10;1.00;;;7.22;64.31;99616.50;4814691;29;20204;-81
2022/04/05 07:20:50;;;;;;;7.45;2.30;;;7.10;1.00;;;7.01;64.51;99615.94;4816833;29;20190;-82
2022/04/05 07:23:21;;;;;;;4.28;2.15;;;7.10;1.00;;;7.01;65.59;99616.78;4813897;29;20701;-80
2022/04/05 07:25:51;;;;;;;12.98;2.17;;;7.10;1.00;;;6.71;65.67;99624.47;4812916;29;20273;-82
2022/04/05 07:28:20;;;;;;;5.63;2.60;;;6.80;1.00;;;6.80;64.73;99619.69;4814942;29;20200;-80
2022/04/05 07:30:49;;;;;;;6.22;2.22;;;6.80;1.00;;;6.81;63.79;99615.97;4813906;29;20178;-83
2022/04/05 07:33:18;;;;;;;7.95;2.10;;;6.90;1.00;;;6.44;63.86;99617.44;4813200;29;20217;-82
2022/04/05 07:35:49;;;;;;;9.30;2.13;;;6.60;1.00;;;6.70;64.02;99625.50;4814787;29;20642;-81
2022/04/05 07:38:18;;;;;;;4.55;1.80;;;6.70;1.00;;;6.68;61.71;99624.88;4814033;29;20188;-79
2022/04/05 07:40:49;;;;;;;7.35;2.45;;;6.80;1.00;;;6.88;61.69;99639.13;4811835;29;20189;-79
2022/04/05 07:43:23;;;;;;;9.02;2.83;;;6.80;1.00;;;6.79;62.26;99629.63;4815891;29;20420;-81
2022/04/05 07:45:54;;;;;;;7.45;2.03;;;6.80;1.00;;;6.97;62.54;99632.50;4813551;29;20196;-82
2022/04/05 07:48:27;;;;;;;8.38;2.80;;;6.90;1.00;;;6.95;62.83;99639.13;4810439;29;20186;-82
2022/04/05 07:50:59;;;;;;;9.90;3.60;;;6.90;1.00;;;7.11;61.95;99630.63;4810217;29;20685;-81
2022/04/05 07:53:29;;;;;;;10.48;2.78;;;7.00;1.00;;;7.30;61.04;99634.31;4817365;29;20284;-80
2022/04/05 07:56:00;;;;;;;9.73;3.72;;;7.20;1.00;;;7.23;61.12;99641.56;4820683;29;20209;-82
2022/04/05 07:58:30;;;;;;;4.28;2.10;;;7.20;1.00;;;7.04;61.07;99651.31;4852883;29;20459;-79
2022/04/05 08:00:59;;;;;;;6.15;2.83;;;7.20;1.00;;;7.14;59.97;99649.03;4822468;29;20206;-78
2022/04/05 08:03:28;;;;;;;4.65;2.10;;;7.20;1.00;;;7.36;59.98;99647.72;4853426;29;20239;-80
2022/04/05 08:05:58;;;;;;;9.27;2.03;;;7.30;1.00;;;7.26;59.75;99660.78;4850520;29;20198;-80
2022/04/05 08:08:28;;;;;;;11.23;2.40;;;7.30;1.00;;;7.23;58.35;99663.91;4817955;29;20193;-80
2022/04/05 08:11:19;;;;;;;6.80;3.60;;;7.30;1.00;;;7.56;58.14;99662.97;4823227;29;20268;-79
2022/04/05 08:13:48;;;;;;;8.35;2.30;;;7.40;1.00;;;7.30;57.95;99653.13;4805208;29;20301;-80
2022/04/05 08:16:18;;;;;;;4.80;2.00;;;7.40;1.00;;;7.29;58.37;99668.44;4821942;29;20788;-81
2022/04/05 08:18:47;;;;;;;5.85;1.80;;;7.30;1.00;;;7.26;58.20;99668.84;4826424;29;20248;-81
2022/04/05 08:21:18;;;;;;;4.00;2.00;;;7.30;1.00;;;7.11;58.86;99681.75;4838358;29;20197;-81
2022/04/05 08:23:50;;;;;;;8.30;1.80;;;7.20;1.00;;;7.28;57.05;99682.09;4839655;29;20225;-81
2022/04/05 08:26:21;;;;;;;6.82;2.70;;;7.30;1.00;;;7.39;56.01;99668.00;4833592;29;20664;-80
2022/04/05 08:28:55;;;;;;;9.73;2.13;;;7.30;1.00;;;7.59;55.00;99679.56;4836110;29;20185;-80
2022/04/05 08:31:25;;;;;;;7.70;2.55;;;7.50;1.00;;;7.51;54.23;99692.41;4819961;29;20190;-81
2022/04/05 08:33:54;;;;;;;5.72;2.40;;;7.60;1.00;;;7.48;54.05;99682.06;4824273;29;20295;-80
2022/04/05 08:36:23;;;;;;;5.95;1.77;;;7.50;1.00;;;7.65;55.16;99675.19;4835897;29;20264;-80
2022/04/05 08:38:53;;;;;;;6.25;1.88;;;7.60;1.00;;;7.65;54.38;99683.28;4835313;29;20230;-81
2022/04/05 08:41:26;;;;;;;3.22;1.20;;;7.70;1.00;;;7.60;53.47;99683.06;4834499;29;20177;-80
2022/04/05 08:43:57;;;;;;;5.70;3.15;;;7.60;1.00;;;7.59;52.76;99686.81;4836506;29;20292;-80
2022/04/05 08:46:30;;;;;;;5.03;2.65;;;7.60;1.00;;;7.91;53.23;99691.22;4838738;29;20177;-80
2022/04/05 08:49:02;;;;;;;5.15;1.90;;;7.80;1.00;;;7.93;53.80;99686.47;4837296;29;20201;-80
2022/04/05 08:51:31;;;;;;;5.47;2.05;;;7.90;1.00;;;8.06;53.46;99681.00;4835316;29;20255;-81
2022/04/05 08:54:02;;;;;;;5.05;2.00;;;8.00;1.00;;;8.09;53.22;99696.72;4835909;29;20278;-81
2022/04/05 08:56:33;;;;;;;7.55;2.42;;;8.10;1.00;;;8.22;52.34;99696.69;4836104;29;20189;-80
2022/04/05 08:59:03;;;;;;;5.10;2.33;;;8.20;1.00;;;8.52;50.71;99706.91;4839528;29;20249;-78
2022/04/05 09:01:34;;;;;;;7.18;2.30;;;8.40;1.00;;;8.62;50.86;99701.81;4838705;29;20244;-80
2022/04/05 09:04:04;;;;;;;7.72;2.33;;;8.50;1.00;;;8.50;51.89;99707.09;4826495;29;20270;-79
2022/04/05 09:06:36;;;;;;;6.72;2.60;;;8.50;1.00;;;8.75;50.61;99712.53;4828397;29;20186;-81
2022/04/05 09:09:11;;;;;;;8.13;1.55;;;8.70;1.00;;;8.27;49.09;99715.72;4822945;29;20255;-81
2022/04/05 09:11:47;;;;;;;6.35;2.00;;;8.50;1.00;;;7.71;48.46;99725.47;4829120;29;20208;-79
2022/04/05 09:14:25;;;;;;;4.75;1.83;;;8.10;1.00;;;7.66;49.64;99717.22;4831712;29;20189;-82
2022/04/05 09:17:06;;;;;;;7.97;3.17;;;7.80;1.00;;;8.10;50.36;99719.94;4865626;29;20430;-81
2022/04/05 09:19:42;;;;;;;8.52;2.22;;;7.90;1.00;;;8.13;50.29;99722.19;4834517;29;20173;-78
2022/04/05 09:22:12;;;;;;;6.75;2.67;;;8.20;1.00;;;7.98;50.88;99718.16;4833901;29;20208;-80
2022/04/05 09:24:44;;;;;;;4.47;1.65;;;8.10;1.00;;;8.32;51.02;99723.19;4833754;29;20235;-80
2022/04/05 09:27:14;;;;;;;4.13;1.95;;;8.20;1.00;;;8.58;50.51;99719.50;4840005;29;20181;-79
2022/04/05 09:29:51;;;;;;;14.88;2.50;;;8.40;1.00;;;8.39;51.10;99734.75;4835937;29;20622;-78
2022/04/05 09:32:36;;;;;;;6.93;2.35;;;8.50;1.00;;;8.47;51.23;99723.69;4821651;29;20217;-78
2022/04/05 09:35:08;;;;;;;5.80;2.00;;;8.50;1.00;;;8.42;51.01;99745.13;4821589;29;20177;-80
2022/04/05 09:37:38;;;;;;;4.00;1.42;;;8.50;1.00;;;7.79;52.47;99730.66;4815772;29;20210;-80
2022/04/05 09:40:24;;;;;;;7.43;1.98;;;8.10;1.00;;;7.98;52.49;99729.75;4817636;29;20272;-78
2022/04/05 09:43:13;;;;;;;5.32;2.03;;;8.00;1.00;;;8.16;51.85;99729.03;4816460;29;20217;-80
2022/04/05 09:45:53;;;;;;;5.65;2.20;;;8.20;1.00;;;8.00;51.75;99730.34;4812672;29;20668;-79
2022/04/05 09:48:25;;;;;;;5.10;1.63;;;8.10;1.00;;;7.78;51.78;99737.06;4817118;29;20195;-81
2022/04/05 09:51:01;;;;;;;6.03;2.30;;;8.00;1.00;;;7.63;52.11;99741.88;4825434;29;20292;-82
2022/04/05 09:53:43;;;;;;;8.02;1.38;;;7.80;1.00;;;7.71;52.54;99752.41;4830698;29;20240;-83
2022/04/05 09:56:17;;;;;;;9.10;2.42;;;7.80;1.00;;;7.73;53.25;99734.19;4830280;29;20192;-81
2022/04/05 09:58:50;;;;;;;4.35;1.80;;;7.80;1.00;;;7.89;52.47;99744.47;4835672;29;20201;-81
2022/04/05 10:01:25;;;;;;;10.27;2.00;;;7.90;1.00;;;8.46;51.74;99745.50;4833771;29;20192;-80
2022/04/05 10:04:02;;;;;;;6.65;1.98;;;8.20;1.00;;;8.59;51.50;99740.03;4826020;29;20216;-81
2022/04/05 10:06:32;;;;;;;8.35;2.28;;;8.50;1.00;;;8.95;50.91;99733.97;4827993;29;20229;-81
2022/04/05 10:09:02;;;;;;;9.50;1.70;;;8.70;1.00;;;9.30;50.18;99745.91;4827572;29;20182;-81
2022/04/05 10:11:34;;;;;;;6.82;3.03;;;9.10;1.00;;;9.69;50.95;99743.84;4826038;29;20213;-81
2022/04/05 10:14:06;;;;;;;5.70;1.92;;;9.30;1.00;;;10.11;49.38;99745.66;4831252;29;20220;-79
2022/04/05 10:16:36;;;;;;;6.18;2.17;;;9.70;1.00;;;9.66;49.22;99741.59;4826701;29;20261;-81
2022/04/05 10:19:12;;;;;;;6.10;2.47;;;9.70;1.00;;;9.27;50.46;99742.81;4826896;29;20242;-79
2022/04/05 10:21:43;;;;;;;9.05;3.22;;;9.50;1.00;;;9.43;50.90;99739.56;4831276;29;20185;-81
2022/04/05 10:24:13;;;;;;;8.65;2.00;;;9.40;1.00;;;9.92;49.62;99744.03;4840630;29;20197;-79
2022/04/05 10:26:49;;;;;;;3.50;1.77;;;9.70;1.00;;;9.74;50.01;99733.19;4839578;29;20192;-81
2022/04/05 10:29:20;;;;;;;8.32;2.70;;;9.60;1.00;;;9.63;49.89;99742.06;4839384;29;20189;-79
2022/04/05 10:31:59;;;;;;;6.00;1.95;;;9.60;1.00;;;9.08;50.61;99740.09;4840468;29;20220;-79
2022/04/05 10:34:35;;;;;;;3.58;2.00;;;9.30;1.00;;;9.19;50.80;99740.41;4839858;29;20188;-81
2022/04/05 10:37:12;;;;;;;7.30;3.13;;;9.20;1.00;;;8.88;51.18;99744.81;4840112;29;20258;-80
2022/04/05 10:39:42;;;;;;;6.88;2.40;;;9.10;1.00;;;8.75;51.86;99757.56;4839898;29;20272;-80
2022/04/05 10:42:21;;;;;;;6.20;1.77;;;8.80;1.00;;;9.03;52.02;99756.09;4904351;23;20201;-65
2022/04/05 10:44:54;;;;;;;6.25;2.58;;;8.90;1.00;;;8.78;52.27;99739.06;4790271;29;20204;-66
2022/04/05 10:47:23;;;;;;;8.00;2.20;;;8.70;1.00;;;9.25;51.60;99743.03;4805187;29;20198;-67
2022/04/05 10:50:20;;;;;;;4.63;1.88;;;9.00;1.00;;;9.83;50.80;99743.47;4789988;29;20190;-66
2022/04/05 10:53:09;;;;;;;7.78;1.95;;;9.40;1.00;;;9.71;50.06;99742.59;4788348;29;20664;-68
2022/04/05 10:56:16;;;;;;;6.00;2.05;;;9.70;1.00;;;9.65;49.38;99742.66;4805035;24;20236;-73
2022/04/05 10:59:19;;;;;;;3.72;1.77;;;9.60;1.00;;;9.64;48.65;99741.81;4803727;29;20487;-73